sensor_id;sensor_type;location;lat;lon;timestamp;P1;durP1;ratioP1;P2;durP2;ratioP2
19965;SDS011;10144;50.874;4.762;2023-07-13T00:01:19;10.35;;;1.95;;
19965;SDS011;10144;50.874;4.762;2023-07-13T00:03:48;10.82;;;2.20;;
19965;SDS011;10144;50.874;4.762;2023-07-13T00:06:14;9.40;;;2.00;;
19965;SDS011;10144;50.874;4.762;2023-07-13T00:08:43;11.90;;;2.20;;
19965;SDS011;10144;50.874;4.762;2023-07-13T00:11:11;11.27;;;1.95;;
19965;SDS011;10144;50.874;4.762;2023-07-13T00:13:43;11.40;;;2.33;;
19965;SDS011;10144;50.874;4.762;2023-07-13T00:16:10;8.98;;;2.15;;
19965;SDS011;10144;50.874;4.762;2023-07-13T00:18:40;10.30;;;1.92;;
19965;SDS011;10144;50.874;4.762;2023-07-13T00:21:05;11.75;;;2.28;;
19965;SDS011;10144;50.874;4.762;2023-07-13T00:23:35;5.88;;;2.03;;
19965;SDS011;10144;50.874;4.762;2023-07-13T00:26:09;13.50;;;2.47;;
19965;SDS011;10144;50.874;4.762;2023-07-13T00:28:36;9.68;;;2.20;;
19965;SDS011;10144;50.874;4.762;2023-07-13T00:31:09;9.25;;;1.88;;
19965;SDS011;10144;50.874;4.762;2023-07-13T00:33:35;8.48;;;1.85;;
19965;SDS011;10144;50.874;4.762;2023-07-13T00:36:03;10.55;;;2.28;;
19965;SDS011;10144;50.874;4.762;2023-07-13T00:38:29;10.95;;;2.00;;
19965;SDS011;10144;50.874;4.762;2023-07-13T00:40:55;9.65;;;2.50;;
19965;SDS011;10144;50.874;4.762;2023-07-13T00:43:22;10.80;;;1.80;;
19965;SDS011;10144;50.874;4.762;2023-07-13T00:48:19;6.65;;;2.05;;
19965;SDS011;10144;50.874;4.762;2023-07-13T00:50:47;12.73;;;2.33;;
19965;SDS011;10144;50.874;4.762;2023-07-13T00:53:22;12.13;;;2.22;;
19965;SDS011;10144;50.874;4.762;2023-07-13T00:55:51;8.65;;;2.38;;
19965;SDS011;10144;50.874;4.762;2023-07-13T00:58:19;9.00;;;1.92;;
19965;SDS011;10144;50.874;4.762;2023-07-13T01:00:47;12.98;;;2.35;;
19965;SDS011;10144;50.874;4.762;2023-07-13T01:03:14;9.63;;;2.20;;
19965;SDS011;10144;50.874;4.762;2023-07-13T01:05:40;11.25;;;2.47;;
19965;SDS011;10144;50.874;4.762;2023-07-13T01:08:06;9.82;;;2.25;;
19965;SDS011;10144;50.874;4.762;2023-07-13T01:10:32;10.75;;;2.05;;
19965;SDS011;10144;50.874;4.762;2023-07-13T01:13:07;9.00;;;2.40;;
19965;SDS011;10144;50.874;4.762;2023-07-13T01:18:04;12.25;;;2.45;;
19965;SDS011;10144;50.874;4.762;2023-07-13T01:20:34;8.55;;;2.03;;
19965;SDS011;10144;50.874;4.762;2023-07-13T01:23:05;11.32;;;2.40;;
19965;SDS011;10144;50.874;4.762;2023-07-13T01:25:38;13.90;;;2.60;;
19965;SDS011;10144;50.874;4.762;2023-07-13T01:28:08;14.60;;;2.70;;
19965;SDS011;10144;50.874;4.762;2023-07-13T01:30:35;10.18;;;2.35;;
19965;SDS011;10144;50.874;4.762;2023-07-13T01:33:06;10.95;;;2.40;;
19965;SDS011;10144;50.874;4.762;2023-07-13T01:35:34;14.38;;;2.40;;
19965;SDS011;10144;50.874;4.762;2023-07-13T01:38:02;17.88;;;2.13;;
19965;SDS011;10144;50.874;4.762;2023-07-13T01:40:28;15.77;;;2.30;;
19965;SDS011;10144;50.874;4.762;2023-07-13T01:42:54;14.60;;;2.40;;
19965;SDS011;10144;50.874;4.762;2023-07-13T01:45:20;8.57;;;2.35;;
19965;SDS011;10144;50.874;4.762;2023-07-13T01:47:46;12.45;;;2.20;;
19965;SDS011;10144;50.874;4.762;2023-07-13T01:50:11;18.60;;;2.50;;
19965;SDS011;10144;50.874;4.762;2023-07-13T01:52:40;12.10;;;2.63;;
19965;SDS011;10144;50.874;4.762;2023-07-13T01:55:12;9.30;;;2.55;;
19965;SDS011;10144;50.874;4.762;2023-07-13T01:57:39;12.40;;;2.33;;
19965;SDS011;10144;50.874;4.762;2023-07-13T02:00:08;9.30;;;2.20;;
19965;SDS011;10144;50.874;4.762;2023-07-13T02:05:03;13.85;;;2.97;;
19965;SDS011;10144;50.874;4.762;2023-07-13T02:07:30;13.85;;;3.08;;
19965;SDS011;10144;50.874;4.762;2023-07-13T02:09:57;9.38;;;2.42;;
19965;SDS011;10144;50.874;4.762;2023-07-13T02:12:23;11.23;;;2.80;;
19965;SDS011;10144;50.874;4.762;2023-07-13T02:14:49;12.25;;;3.00;;
19965;SDS011;10144;50.874;4.762;2023-07-13T02:17:15;10.65;;;2.38;;
19965;SDS011;10144;50.874;4.762;2023-07-13T02:19:40;14.13;;;2.75;;
19965;SDS011;10144;50.874;4.762;2023-07-13T02:22:06;16.48;;;3.30;;
19965;SDS011;10144;50.874;4.762;2023-07-13T02:24:33;15.75;;;3.10;;
19965;SDS011;10144;50.874;4.762;2023-07-13T02:27:00;14.05;;;2.80;;
19965;SDS011;10144;50.874;4.762;2023-07-13T02:29:25;13.23;;;2.67;;
19965;SDS011;10144;50.874;4.762;2023-07-13T02:31:51;14.52;;;2.67;;
19965;SDS011;10144;50.874;4.762;2023-07-13T02:34:17;13.93;;;3.10;;
19965;SDS011;10144;50.874;4.762;2023-07-13T02:36:43;9.57;;;3.03;;
19965;SDS011;10144;50.874;4.762;2023-07-13T02:39:11;10.27;;;2.60;;
19965;SDS011;10144;50.874;4.762;2023-07-13T02:41:41;13.75;;;2.83;;
19965;SDS011;10144;50.874;4.762;2023-07-13T02:44:06;11.98;;;2.75;;
19965;SDS011;10144;50.874;4.762;2023-07-13T02:46:34;12.38;;;2.85;;
19965;SDS011;10144;50.874;4.762;2023-07-13T02:49:02;10.05;;;2.65;;
19965;SDS011;10144;50.874;4.762;2023-07-13T02:51:29;17.58;;;3.40;;
19965;SDS011;10144;50.874;4.762;2023-07-13T02:53:55;12.32;;;3.10;;
19965;SDS011;10144;50.874;4.762;2023-07-13T02:56:22;12.63;;;3.10;;
19965;SDS011;10144;50.874;4.762;2023-07-13T02:58:52;8.48;;;2.90;;
19965;SDS011;10144;50.874;4.762;2023-07-13T03:01:19;11.90;;;2.42;;
19965;SDS011;10144;50.874;4.762;2023-07-13T03:03:46;13.35;;;3.03;;
19965;SDS011;10144;50.874;4.762;2023-07-13T03:08:55;11.77;;;3.08;;
19965;SDS011;10144;50.874;4.762;2023-07-13T03:11:21;15.27;;;3.08;;
19965;SDS011;10144;50.874;4.762;2023-07-13T03:13:48;17.98;;;3.45;;
19965;SDS011;10144;50.874;4.762;2023-07-13T03:16:15;11.50;;;3.03;;
19965;SDS011;10144;50.874;4.762;2023-07-13T03:18:43;13.52;;;2.85;;
19965;SDS011;10144;50.874;4.762;2023-07-13T03:21:10;12.90;;;2.83;;
19965;SDS011;10144;50.874;4.762;2023-07-13T03:23:36;15.85;;;3.00;;
19965;SDS011;10144;50.874;4.762;2023-07-13T03:26:13;15.60;;;3.15;;
19965;SDS011;10144;50.874;4.762;2023-07-13T03:28:41;11.90;;;2.95;;
19965;SDS011;10144;50.874;4.762;2023-07-13T03:31:09;15.00;;;3.28;;
19965;SDS011;10144;50.874;4.762;2023-07-13T03:33:41;11.35;;;2.83;;
19965;SDS011;10144;50.874;4.762;2023-07-13T03:36:10;15.55;;;3.10;;
19965;SDS011;10144;50.874;4.762;2023-07-13T03:38:47;14.65;;;2.90;;
19965;SDS011;10144;50.874;4.762;2023-07-13T03:43:49;12.73;;;2.80;;
19965;SDS011;10144;50.874;4.762;2023-07-13T03:46:16;18.95;;;3.22;;
19965;SDS011;10144;50.874;4.762;2023-07-13T03:48:43;10.60;;;3.10;;
19965;SDS011;10144;50.874;4.762;2023-07-13T03:51:10;17.80;;;2.92;;
19965;SDS011;10144;50.874;4.762;2023-07-13T03:53:39;15.15;;;3.40;;
19965;SDS011;10144;50.874;4.762;2023-07-13T03:56:08;15.60;;;3.03;;
19965;SDS011;10144;50.874;4.762;2023-07-13T03:58:36;11.02;;;2.90;;
19965;SDS011;10144;50.874;4.762;2023-07-13T04:01:05;11.20;;;2.85;;
19965;SDS011;10144;50.874;4.762;2023-07-13T04:03:35;18.20;;;3.15;;
19965;SDS011;10144;50.874;4.762;2023-07-13T04:06:05;13.60;;;2.72;;
19965;SDS011;10144;50.874;4.762;2023-07-13T04:08:40;16.35;;;3.65;;
19965;SDS011;10144;50.874;4.762;2023-07-13T04:11:06;17.48;;;3.30;;
19965;SDS011;10144;50.874;4.762;2023-07-13T04:13:31;19.55;;;3.25;;
19965;SDS011;10144;50.874;4.762;2023-07-13T04:15:59;13.55;;;2.97;;
19965;SDS011;10144;50.874;4.762;2023-07-13T04:20:56;10.30;;;2.72;;
19965;SDS011;10144;50.874;4.762;2023-07-13T04:23:23;10.82;;;3.10;;
19965;SDS011;10144;50.874;4.762;2023-07-13T04:25:51;16.10;;;3.00;;
19965;SDS011;10144;50.874;4.762;2023-07-13T04:28:23;15.45;;;2.88;;
19965;SDS011;10144;50.874;4.762;2023-07-13T04:30:50;17.13;;;3.13;;
19965;SDS011;10144;50.874;4.762;2023-07-13T04:33:16;11.77;;;2.92;;
19965;SDS011;10144;50.874;4.762;2023-07-13T04:35:42;15.88;;;2.97;;
19965;SDS011;10144;50.874;4.762;2023-07-13T04:38:09;18.30;;;3.33;;
19965;SDS011;10144;50.874;4.762;2023-07-13T04:40:36;11.77;;;2.63;;
19965;SDS011;10144;50.874;4.762;2023-07-13T04:43:02;17.38;;;2.90;;
19965;SDS011;10144;50.874;4.762;2023-07-13T04:45:28;15.93;;;3.33;;
19965;SDS011;10144;50.874;4.762;2023-07-13T04:47:54;14.32;;;2.90;;
19965;SDS011;10144;50.874;4.762;2023-07-13T04:50:20;12.43;;;3.20;;
19965;SDS011;10144;50.874;4.762;2023-07-13T04:52:50;16.45;;;3.47;;
19965;SDS011;10144;50.874;4.762;2023-07-13T04:55:16;9.35;;;2.92;;
19965;SDS011;10144;50.874;4.762;2023-07-13T04:57:43;14.02;;;2.70;;
19965;SDS011;10144;50.874;4.762;2023-07-13T05:00:08;12.43;;;2.72;;
19965;SDS011;10144;50.874;4.762;2023-07-13T05:02:37;21.77;;;3.17;;
19965;SDS011;10144;50.874;4.762;2023-07-13T05:05:04;16.98;;;3.55;;
19965;SDS011;10144;50.874;4.762;2023-07-13T05:07:31;12.60;;;3.35;;
19965;SDS011;10144;50.874;4.762;2023-07-13T05:12:28;15.25;;;3.17;;
19965;SDS011;10144;50.874;4.762;2023-07-13T05:14:54;14.40;;;2.83;;
19965;SDS011;10144;50.874;4.762;2023-07-13T05:17:20;16.20;;;3.53;;
19965;SDS011;10144;50.874;4.762;2023-07-13T05:19:47;19.20;;;3.25;;
19965;SDS011;10144;50.874;4.762;2023-07-13T05:22:13;19.60;;;3.42;;
19965;SDS011;10144;50.874;4.762;2023-07-13T05:24:39;16.10;;;2.88;;
19965;SDS011;10144;50.874;4.762;2023-07-13T05:27:05;20.77;;;3.92;;
19965;SDS011;10144;50.874;4.762;2023-07-13T05:29:30;9.85;;;2.70;;
19965;SDS011;10144;50.874;4.762;2023-07-13T05:31:56;14.75;;;3.20;;
19965;SDS011;10144;50.874;4.762;2023-07-13T05:34:22;15.10;;;3.25;;
19965;SDS011;10144;50.874;4.762;2023-07-13T05:36:48;12.65;;;3.00;;
19965;SDS011;10144;50.874;4.762;2023-07-13T05:39:14;15.60;;;3.47;;
19965;SDS011;10144;50.874;4.762;2023-07-13T05:41:40;19.60;;;3.38;;
19965;SDS011;10144;50.874;4.762;2023-07-13T05:44:05;16.92;;;3.50;;
19965;SDS011;10144;50.874;4.762;2023-07-13T05:46:31;19.90;;;3.28;;
19965;SDS011;10144;50.874;4.762;2023-07-13T05:48:57;14.98;;;3.63;;
19965;SDS011;10144;50.874;4.762;2023-07-13T05:51:22;15.80;;;3.38;;
19965;SDS011;10144;50.874;4.762;2023-07-13T05:53:48;16.38;;;3.55;;
19965;SDS011;10144;50.874;4.762;2023-07-13T05:56:14;12.85;;;3.00;;
19965;SDS011;10144;50.874;4.762;2023-07-13T05:58:39;11.48;;;2.75;;
19965;SDS011;10144;50.874;4.762;2023-07-13T06:01:08;15.52;;;3.35;;
19965;SDS011;10144;50.874;4.762;2023-07-13T06:03:40;15.52;;;3.22;;
19965;SDS011;10144;50.874;4.762;2023-07-13T06:06:07;14.50;;;3.50;;
19965;SDS011;10144;50.874;4.762;2023-07-13T06:08:36;18.52;;;3.95;;
19965;SDS011;10144;50.874;4.762;2023-07-13T06:11:16;14.27;;;2.75;;
19965;SDS011;10144;50.874;4.762;2023-07-13T06:13:44;14.93;;;3.33;;
19965;SDS011;10144;50.874;4.762;2023-07-13T06:16:13;19.10;;;3.58;;
19965;SDS011;10144;50.874;4.762;2023-07-13T06:18:43;16.92;;;3.10;;
19965;SDS011;10144;50.874;4.762;2023-07-13T06:23:41;21.20;;;3.47;;
19965;SDS011;10144;50.874;4.762;2023-07-13T06:26:07;20.75;;;3.25;;
19965;SDS011;10144;50.874;4.762;2023-07-13T06:28:34;17.77;;;3.60;;
19965;SDS011;10144;50.874;4.762;2023-07-13T06:31:00;16.50;;;3.90;;
19965;SDS011;10144;50.874;4.762;2023-07-13T06:33:26;12.98;;;3.22;;
19965;SDS011;10144;50.874;4.762;2023-07-13T06:35:53;12.88;;;3.42;;
19965;SDS011;10144;50.874;4.762;2023-07-13T06:38:20;13.43;;;3.38;;
19965;SDS011;10144;50.874;4.762;2023-07-13T06:40:46;17.85;;;3.30;;
19965;SDS011;10144;50.874;4.762;2023-07-13T06:43:13;16.63;;;3.50;;
19965;SDS011;10144;50.874;4.762;2023-07-13T06:45:44;17.92;;;3.58;;
19965;SDS011;10144;50.874;4.762;2023-07-13T06:48:12;15.55;;;3.38;;
19965;SDS011;10144;50.874;4.762;2023-07-13T06:50:38;16.52;;;3.15;;
19965;SDS011;10144;50.874;4.762;2023-07-13T06:53:05;18.73;;;4.07;;
19965;SDS011;10144;50.874;4.762;2023-07-13T06:55:30;13.35;;;2.97;;
19965;SDS011;10144;50.874;4.762;2023-07-13T06:57:56;21.65;;;3.60;;
19965;SDS011;10144;50.874;4.762;2023-07-13T07:00:22;20.25;;;3.40;;
19965;SDS011;10144;50.874;4.762;2023-07-13T07:02:49;16.90;;;3.20;;
19965;SDS011;10144;50.874;4.762;2023-07-13T07:07:53;18.25;;;3.33;;
19965;SDS011;10144;50.874;4.762;2023-07-13T07:10:20;14.75;;;3.80;;
19965;SDS011;10144;50.874;4.762;2023-07-13T07:12:47;25.02;;;3.42;;
19965;SDS011;10144;50.874;4.762;2023-07-13T07:15:12;16.10;;;3.00;;
19965;SDS011;10144;50.874;4.762;2023-07-13T07:17:38;16.48;;;3.10;;
19965;SDS011;10144;50.874;4.762;2023-07-13T07:20:05;17.30;;;3.15;;
19965;SDS011;10144;50.874;4.762;2023-07-13T07:22:38;10.77;;;2.67;;
19965;SDS011;10144;50.874;4.762;2023-07-13T07:25:06;14.13;;;3.00;;
19965;SDS011;10144;50.874;4.762;2023-07-13T07:27:38;13.95;;;3.03;;
19965;SDS011;10144;50.874;4.762;2023-07-13T07:30:04;15.15;;;2.90;;
19965;SDS011;10144;50.874;4.762;2023-07-13T07:32:31;16.67;;;3.40;;
19965;SDS011;10144;50.874;4.762;2023-07-13T07:34:59;13.07;;;2.70;;
19965;SDS011;10144;50.874;4.762;2023-07-13T07:37:25;15.52;;;3.35;;
19965;SDS011;10144;50.874;4.762;2023-07-13T07:39:50;15.95;;;3.00;;
19965;SDS011;10144;50.874;4.762;2023-07-13T07:42:16;15.50;;;3.30;;
19965;SDS011;10144;50.874;4.762;2023-07-13T07:44:42;10.07;;;2.83;;
19965;SDS011;10144;50.874;4.762;2023-07-13T07:47:09;15.27;;;3.25;;
19965;SDS011;10144;50.874;4.762;2023-07-13T07:49:35;11.88;;;2.80;;
19965;SDS011;10144;50.874;4.762;2023-07-13T07:52:01;10.05;;;2.50;;
19965;SDS011;10144;50.874;4.762;2023-07-13T07:54:27;13.93;;;2.70;;
19965;SDS011;10144;50.874;4.762;2023-07-13T07:56:53;13.48;;;3.08;;
19965;SDS011;10144;50.874;4.762;2023-07-13T07:59:19;13.88;;;2.63;;
19965;SDS011;10144;50.874;4.762;2023-07-13T08:01:45;14.75;;;3.03;;
19965;SDS011;10144;50.874;4.762;2023-07-13T08:04:12;12.68;;;2.97;;
19965;SDS011;10144;50.874;4.762;2023-07-13T08:06:38;18.30;;;2.88;;
19965;SDS011;10144;50.874;4.762;2023-07-13T08:09:05;10.07;;;2.83;;
19965;SDS011;10144;50.874;4.762;2023-07-13T08:11:31;10.43;;;2.55;;
19965;SDS011;10144;50.874;4.762;2023-07-13T08:13:56;13.25;;;2.63;;
19965;SDS011;10144;50.874;4.762;2023-07-13T08:16:22;14.77;;;2.67;;
19965;SDS011;10144;50.874;4.762;2023-07-13T08:18:48;16.52;;;2.90;;
19965;SDS011;10144;50.874;4.762;2023-07-13T08:21:14;13.45;;;2.63;;
19965;SDS011;10144;50.874;4.762;2023-07-13T08:23:40;11.45;;;2.50;;
19965;SDS011;10144;50.874;4.762;2023-07-13T08:26:05;12.60;;;2.90;;
19965;SDS011;10144;50.874;4.762;2023-07-13T08:28:33;10.73;;;2.67;;
19965;SDS011;10144;50.874;4.762;2023-07-13T08:31:05;9.68;;;2.63;;
19965;SDS011;10144;50.874;4.762;2023-07-13T08:33:34;11.95;;;2.20;;
19965;SDS011;10144;50.874;4.762;2023-07-13T08:36:01;10.15;;;2.50;;
19965;SDS011;10144;50.874;4.762;2023-07-13T08:38:28;9.27;;;2.30;;
19965;SDS011;10144;50.874;4.762;2023-07-13T08:40:56;9.98;;;2.20;;
19965;SDS011;10144;50.874;4.762;2023-07-13T08:43:26;9.18;;;2.25;;
19965;SDS011;10144;50.874;4.762;2023-07-13T08:46:08;11.40;;;2.60;;
19965;SDS011;10144;50.874;4.762;2023-07-13T08:51:50;9.63;;;2.60;;
19965;SDS011;10144;50.874;4.762;2023-07-13T08:54:30;9.35;;;2.47;;
19965;SDS011;10144;50.874;4.762;2023-07-13T08:57:13;7.22;;;2.25;;
19965;SDS011;10144;50.874;4.762;2023-07-13T08:59:40;9.13;;;2.38;;
19965;SDS011;10144;50.874;4.762;2023-07-13T09:05:04;8.27;;;2.00;;
19965;SDS011;10144;50.874;4.762;2023-07-13T09:11:23;15.02;;;2.65;;
19965;SDS011;10144;50.874;4.762;2023-07-13T09:14:40;14.05;;;2.17;;
19965;SDS011;10144;50.874;4.762;2023-07-13T09:16:46;12.07;;;2.60;;
19965;SDS011;10144;50.874;4.762;2023-07-13T09:19:16;7.45;;;2.00;;
19965;SDS011;10144;50.874;4.762;2023-07-13T09:21:50;9.38;;;2.10;;
19965;SDS011;10144;50.874;4.762;2023-07-13T09:27:01;7.00;;;1.90;;
19965;SDS011;10144;50.874;4.762;2023-07-13T09:29:45;7.93;;;2.38;;
19965;SDS011;10144;50.874;4.762;2023-07-13T09:32:16;10.68;;;2.00;;
19965;SDS011;10144;50.874;4.762;2023-07-13T09:34:50;9.85;;;2.20;;
19965;SDS011;10144;50.874;4.762;2023-07-13T09:37:18;9.43;;;2.30;;
19965;SDS011;10144;50.874;4.762;2023-07-13T09:39:46;6.50;;;1.55;;
19965;SDS011;10144;50.874;4.762;2023-07-13T09:44:52;8.93;;;2.17;;
19965;SDS011;10144;50.874;4.762;2023-07-13T09:47:24;5.47;;;1.88;;
19965;SDS011;10144;50.874;4.762;2023-07-13T09:49:57;5.70;;;1.75;;
19965;SDS011;10144;50.874;4.762;2023-07-13T09:52:23;6.97;;;2.10;;
19965;SDS011;10144;50.874;4.762;2023-07-13T09:54:52;6.68;;;1.90;;
19965;SDS011;10144;50.874;4.762;2023-07-13T09:57:25;9.07;;;2.00;;
19965;SDS011;10144;50.874;4.762;2023-07-13T09:59:53;6.70;;;2.13;;
19965;SDS011;10144;50.874;4.762;2023-07-13T10:02:30;5.03;;;1.90;;
19965;SDS011;10144;50.874;4.762;2023-07-13T10:05:02;5.88;;;2.15;;
19965;SDS011;10144;50.874;4.762;2023-07-13T10:07:38;7.57;;;1.50;;
19965;SDS011;10144;50.874;4.762;2023-07-13T10:10:13;9.73;;;2.40;;
19965;SDS011;10144;50.874;4.762;2023-07-13T10:12:40;7.82;;;2.00;;
19965;SDS011;10144;50.874;4.762;2023-07-13T10:15:09;5.82;;;2.00;;
19965;SDS011;10144;50.874;4.762;2023-07-13T10:17:41;8.02;;;2.22;;
19965;SDS011;10144;50.874;4.762;2023-07-13T10:20:08;5.85;;;2.00;;
19965;SDS011;10144;50.874;4.762;2023-07-13T10:22:43;7.10;;;2.15;;
19965;SDS011;10144;50.874;4.762;2023-07-13T10:25:27;5.38;;;1.98;;
19965;SDS011;10144;50.874;4.762;2023-07-13T10:28:25;3.80;;;1.75;;
19965;SDS011;10144;50.874;4.762;2023-07-13T10:30:58;7.57;;;1.60;;
19965;SDS011;10144;50.874;4.762;2023-07-13T10:33:26;6.15;;;1.90;;
19965;SDS011;10144;50.874;4.762;2023-07-13T10:35:54;7.40;;;1.92;;
19965;SDS011;10144;50.874;4.762;2023-07-13T10:38:42;6.10;;;2.03;;
19965;SDS011;10144;50.874;4.762;2023-07-13T10:41:10;5.57;;;1.77;;
19965;SDS011;10144;50.874;4.762;2023-07-13T10:43:44;7.18;;;1.83;;
19965;SDS011;10144;50.874;4.762;2023-07-13T10:46:16;7.30;;;2.13;;
19965;SDS011;10144;50.874;4.762;2023-07-13T10:48:46;8.20;;;1.90;;
19965;SDS011;10144;50.874;4.762;2023-07-13T10:51:17;7.38;;;2.10;;
19965;SDS011;10144;50.874;4.762;2023-07-13T10:53:46;4.22;;;1.73;;
19965;SDS011;10144;50.874;4.762;2023-07-13T10:56:22;6.75;;;2.03;;
19965;SDS011;10144;50.874;4.762;2023-07-13T10:59:11;5.45;;;1.88;;
19965;SDS011;10144;50.874;4.762;2023-07-13T11:06:47;6.43;;;1.88;;
19965;SDS011;10144;50.874;4.762;2023-07-13T11:14:43;8.52;;;1.90;;
19965;SDS011;10144;50.874;4.762;2023-07-13T11:23:09;5.07;;;1.80;;
19965;SDS011;10144;50.874;4.762;2023-07-13T11:25:43;7.32;;;1.90;;
19965;SDS011;10144;50.874;4.762;2023-07-13T11:30:48;4.97;;;1.60;;
19965;SDS011;10144;50.874;4.762;2023-07-13T11:36:14;5.85;;;1.80;;
19965;SDS011;10144;50.874;4.762;2023-07-13T11:38:42;5.18;;;1.55;;
19965;SDS011;10144;50.874;4.762;2023-07-13T11:41:25;5.45;;;1.70;;
19965;SDS011;10144;50.874;4.762;2023-07-13T11:44:22;5.35;;;1.88;;
19965;SDS011;10144;50.874;4.762;2023-07-13T11:46:50;8.57;;;1.65;;
19965;SDS011;10144;50.874;4.762;2023-07-13T11:49:20;5.20;;;1.90;;
19965;SDS011;10144;50.874;4.762;2023-07-13T11:51:49;9.73;;;1.80;;
19965;SDS011;10144;50.874;4.762;2023-07-13T11:54:29;4.97;;;1.90;;
19965;SDS011;10144;50.874;4.762;2023-07-13T11:56:58;8.18;;;2.10;;
19965;SDS011;10144;50.874;4.762;2023-07-13T11:59:26;7.68;;;1.85;;
19965;SDS011;10144;50.874;4.762;2023-07-13T12:01:54;7.82;;;1.98;;
19965;SDS011;10144;50.874;4.762;2023-07-13T12:04:29;7.10;;;1.73;;
19965;SDS011;10144;50.874;4.762;2023-07-13T12:07:05;5.97;;;1.70;;
19965;SDS011;10144;50.874;4.762;2023-07-13T12:09:34;6.03;;;1.67;;
19965;SDS011;10144;50.874;4.762;2023-07-13T12:12:01;4.72;;;1.90;;
19965;SDS011;10144;50.874;4.762;2023-07-13T12:14:33;6.80;;;1.70;;
19965;SDS011;10144;50.874;4.762;2023-07-13T12:16:59;6.63;;;1.40;;
19965;SDS011;10144;50.874;4.762;2023-07-13T12:19:28;8.13;;;1.80;;
19965;SDS011;10144;50.874;4.762;2023-07-13T12:21:56;7.50;;;1.85;;
19965;SDS011;10144;50.874;4.762;2023-07-13T12:24:28;9.85;;;1.88;;
19965;SDS011;10144;50.874;4.762;2023-07-13T12:27:02;4.65;;;1.52;;
19965;SDS011;10144;50.874;4.762;2023-07-13T12:29:29;5.97;;;1.80;;
19965;SDS011;10144;50.874;4.762;2023-07-13T12:31:59;3.85;;;1.40;;
19965;SDS011;10144;50.874;4.762;2023-07-13T12:34:49;3.40;;;1.20;;
19965;SDS011;10144;50.874;4.762;2023-07-13T12:37:30;6.10;;;1.70;;
19965;SDS011;10144;50.874;4.762;2023-07-13T12:40:01;7.55;;;1.55;;
19965;SDS011;10144;50.874;4.762;2023-07-13T12:42:34;4.68;;;1.50;;
19965;SDS011;10144;50.874;4.762;2023-07-13T12:48:13;3.72;;;1.45;;
19965;SDS011;10144;50.874;4.762;2023-07-13T12:50:42;7.57;;;1.75;;
19965;SDS011;10144;50.874;4.762;2023-07-13T12:53:28;8.65;;;1.88;;
19965;SDS011;10144;50.874;4.762;2023-07-13T12:58:45;7.20;;;1.52;;
19965;SDS011;10144;50.874;4.762;2023-07-13T13:04:05;5.88;;;1.70;;
19965;SDS011;10144;50.874;4.762;2023-07-13T13:06:36;5.03;;;1.80;;
19965;SDS011;10144;50.874;4.762;2023-07-13T13:09:12;6.55;;;2.13;;
19965;SDS011;10144;50.874;4.762;2023-07-13T13:11:39;5.18;;;1.70;;
19965;SDS011;10144;50.874;4.762;2023-07-13T13:14:06;6.07;;;1.58;;
19965;SDS011;10144;50.874;4.762;2023-07-13T13:16:35;3.53;;;1.40;;
19965;SDS011;10144;50.874;4.762;2023-07-13T13:19:14;3.78;;;1.45;;
19965;SDS011;10144;50.874;4.762;2023-07-13T13:21:46;4.70;;;1.58;;
19965;SDS011;10144;50.874;4.762;2023-07-13T13:24:13;3.67;;;1.63;;
19965;SDS011;10144;50.874;4.762;2023-07-13T13:26:48;4.82;;;1.40;;
19965;SDS011;10144;50.874;4.762;2023-07-13T13:29:22;3.42;;;1.40;;
19965;SDS011;10144;50.874;4.762;2023-07-13T13:31:52;5.40;;;1.70;;
19965;SDS011;10144;50.874;4.762;2023-07-13T13:34:22;3.28;;;1.52;;
19965;SDS011;10144;50.874;4.762;2023-07-13T13:36:56;4.65;;;1.80;;
19965;SDS011;10144;50.874;4.762;2023-07-13T13:41:56;6.93;;;2.05;;
19965;SDS011;10144;50.874;4.762;2023-07-13T13:44:22;7.22;;;1.95;;
19965;SDS011;10144;50.874;4.762;2023-07-13T13:46:53;10.32;;;1.90;;
19965;SDS011;10144;50.874;4.762;2023-07-13T13:52:20;6.32;;;2.00;;
19965;SDS011;10144;50.874;4.762;2023-07-13T13:54:48;6.28;;;1.85;;
19965;SDS011;10144;50.874;4.762;2023-07-13T13:57:15;8.18;;;2.20;;
19965;SDS011;10144;50.874;4.762;2023-07-13T13:59:40;4.57;;;1.67;;
19965;SDS011;10144;50.874;4.762;2023-07-13T14:02:20;6.65;;;1.80;;
19965;SDS011;10144;50.874;4.762;2023-07-13T14:05:01;3.60;;;1.40;;
19965;SDS011;10144;50.874;4.762;2023-07-13T14:07:28;6.78;;;1.50;;
19965;SDS011;10144;50.874;4.762;2023-07-13T14:09:58;5.50;;;1.90;;
19965;SDS011;10144;50.874;4.762;2023-07-13T14:12:25;4.25;;;1.50;;
19965;SDS011;10144;50.874;4.762;2023-07-13T14:14:55;7.38;;;1.77;;
19965;SDS011;10144;50.874;4.762;2023-07-13T14:17:24;4.30;;;1.65;;
19965;SDS011;10144;50.874;4.762;2023-07-13T14:19:53;3.65;;;1.42;;
19965;SDS011;10144;50.874;4.762;2023-07-13T14:22:22;6.28;;;1.90;;
19965;SDS011;10144;50.874;4.762;2023-07-13T14:24:51;5.55;;;1.73;;
19965;SDS011;10144;50.874;4.762;2023-07-13T14:27:23;6.05;;;2.03;;
19965;SDS011;10144;50.874;4.762;2023-07-13T14:29:50;5.25;;;1.73;;
19965;SDS011;10144;50.874;4.762;2023-07-13T14:32:15;3.63;;;1.60;;
19965;SDS011;10144;50.874;4.762;2023-07-13T14:34:41;4.90;;;1.52;;
19965;SDS011;10144;50.874;4.762;2023-07-13T14:37:11;8.82;;;1.80;;
19965;SDS011;10144;50.874;4.762;2023-07-13T14:39:39;4.47;;;1.77;;
19965;SDS011;10144;50.874;4.762;2023-07-13T14:42:09;6.38;;;1.60;;
19965;SDS011;10144;50.874;4.762;2023-07-13T14:44:37;6.50;;;1.90;;
19965;SDS011;10144;50.874;4.762;2023-07-13T14:47:05;6.63;;;1.50;;
19965;SDS011;10144;50.874;4.762;2023-07-13T14:49:32;3.95;;;1.80;;
19965;SDS011;10144;50.874;4.762;2023-07-13T14:52:11;8.05;;;1.77;;
19965;SDS011;10144;50.874;4.762;2023-07-13T14:54:41;6.20;;;1.92;;
19965;SDS011;10144;50.874;4.762;2023-07-13T14:57:12;7.78;;;1.88;;
19965;SDS011;10144;50.874;4.762;2023-07-13T14:59:39;4.93;;;1.92;;
19965;SDS011;10144;50.874;4.762;2023-07-13T15:02:18;4.40;;;1.67;;
19965;SDS011;10144;50.874;4.762;2023-07-13T15:04:56;6.38;;;1.85;;
19965;SDS011;10144;50.874;4.762;2023-07-13T15:07:23;11.90;;;1.90;;
19965;SDS011;10144;50.874;4.762;2023-07-13T15:09:49;4.00;;;1.83;;
19965;SDS011;10144;50.874;4.762;2023-07-13T15:12:16;7.20;;;1.90;;
19965;SDS011;10144;50.874;4.762;2023-07-13T15:14:41;8.02;;;1.80;;
19965;SDS011;10144;50.874;4.762;2023-07-13T15:17:41;4.82;;;1.90;;
19965;SDS011;10144;50.874;4.762;2023-07-13T15:20:06;6.63;;;1.80;;
19965;SDS011;10144;50.874;4.762;2023-07-13T15:22:56;4.57;;;1.80;;
19965;SDS011;10144;50.874;4.762;2023-07-13T15:25:24;5.63;;;1.92;;
19965;SDS011;10144;50.874;4.762;2023-07-13T15:27:52;3.10;;;1.42;;
19965;SDS011;10144;50.874;4.762;2023-07-13T15:30:20;4.30;;;1.60;;
19965;SDS011;10144;50.874;4.762;2023-07-13T15:35:24;5.50;;;1.90;;
19965;SDS011;10144;50.874;4.762;2023-07-13T15:37:52;5.00;;;1.60;;
19965;SDS011;10144;50.874;4.762;2023-07-13T15:40:30;3.97;;;1.80;;
19965;SDS011;10144;50.874;4.762;2023-07-13T15:45:46;4.72;;;1.70;;
19965;SDS011;10144;50.874;4.762;2023-07-13T15:48:19;4.03;;;1.70;;
19965;SDS011;10144;50.874;4.762;2023-07-13T15:50:48;8.52;;;1.70;;
19965;SDS011;10144;50.874;4.762;2023-07-13T15:53:25;4.90;;;1.77;;
19965;SDS011;10144;50.874;4.762;2023-07-13T15:58:46;5.32;;;1.77;;
19965;SDS011;10144;50.874;4.762;2023-07-13T16:01:11;9.27;;;2.33;;
19965;SDS011;10144;50.874;4.762;2023-07-13T16:03:49;3.45;;;1.67;;
19965;SDS011;10144;50.874;4.762;2023-07-13T16:06:23;7.28;;;1.98;;
19965;SDS011;10144;50.874;4.762;2023-07-13T16:11:57;7.93;;;2.05;;
19965;SDS011;10144;50.874;4.762;2023-07-13T16:16:56;6.05;;;1.98;;
19965;SDS011;10144;50.874;4.762;2023-07-13T16:19:23;7.38;;;1.98;;
19965;SDS011;10144;50.874;4.762;2023-07-13T16:24:27;5.72;;;1.85;;